Time;durP1;ratioP1;P1;durP2;ratioP2;P2;SDS_P1;SDS_P2;PMS_P1;PMS_P2;Temp;Humidity;BMP_temperature;BMP_pressure;BME280_temperature;BME280_humidity;BME280_pressure;Samples;Min_cycle;Max_cycle;Signal;HPM_P1;HPM_P2
2021/09/05 00:01:57;;;;;;;9.23;5.68;;;410.50;2355.20;;;;;;5014617;28;20025;-80
2021/09/05 00:04:24;;;;;;;10.10;5.40;;;435.20;2355.20;;;;;;5015640;28;20370;-81
2021/09/05 00:06:50;;;;;;;10.90;5.78;;;410.50;2355.20;;;;;;5014733;28;20036;-81
2021/09/05 00:09:16;;;;;;;10.38;5.57;;;410.50;2355.20;;;;;;5014170;28;20433;-80
2021/09/05 00:11:41;;;;;;;8.55;5.43;;;410.50;2355.20;;;;;;5014480;28;20026;-84
2021/09/05 00:14:07;;;;;;;9.10;5.88;;;410.50;2355.20;;;;;;5015123;28;20038;-82
2021/09/05 00:16:33;;;;;;;13.70;4.93;;;410.50;2355.20;;;;;;5014541;28;20379;-83
2021/09/05 00:18:59;;;;;;;9.65;5.30;;;410.50;2355.20;;;;;;5014544;28;20125;-83
2021/09/05 00:21:25;;;;;;;8.13;5.32;;;410.50;2355.20;;;;;;5014408;28;20026;-82
2021/09/05 00:23:51;;;;;;;7.40;4.80;;;435.20;2355.20;;;;;;5015741;28;20034;-81
2021/09/05 00:26:17;;;;;;;10.48;5.50;;;435.20;2355.20;;;;;;5014595;28;20056;-83
2021/09/05 00:28:43;;;;;;;8.35;4.68;;;410.50;2355.20;;;;;;5014406;28;20049;-82
2021/09/05 00:31:09;;;;;;;7.93;5.28;;;435.20;2355.20;;;;;;5015078;28;20030;-80
2021/09/05 00:33:35;;;;;;;8.88;5.22;;;435.20;2355.20;;;;;;5015004;28;20026;-81
2021/09/05 00:36:01;;;;;;;9.25;4.95;;;435.20;2355.20;;;;;;5016118;28;20029;-81
2021/09/05 00:38:27;;;;;;;7.80;5.20;;;410.50;2355.20;;;;;;5021361;28;20084;-81
2021/09/05 00:40:53;;;;;;;7.03;5.00;;;435.20;2355.20;;;;;;5033094;28;20022;-80
2021/09/05 00:43:19;;;;;;;8.50;5.32;;;435.20;2355.20;;;;;;5036965;28;20010;-81
2021/09/05 00:45:44;;;;;;;7.53;5.20;;;435.20;2355.20;;;;;;5035751;28;20022;-80
2021/09/05 00:48:10;;;;;;;7.65;5.13;;;435.20;2355.20;;;;;;5027916;28;20093;-82
2021/09/05 00:50:36;;;;;;;8.43;5.82;;;410.40;2355.20;;;;;;5030139;28;20026;-80
2021/09/05 00:53:04;;;;;;;9.13;5.07;;;410.30;2355.20;;;;;;5038107;28;20021;-78
2021/09/05 00:55:34;;;;;;;9.00;5.38;;;410.30;2355.20;;;;;;5036732;28;20034;-79
2021/09/05 00:58:00;;;;;;;8.05;5.78;;;410.20;2355.20;;;;;;5036897;28;20006;-79
2021/09/05 01:00:26;;;;;;;12.98;5.82;;;409.70;2355.20;;;;;;5036353;28;20013;-76
2021/09/05 01:02:52;;;;;;;8.57;5.40;;;409.90;2355.20;;;;;;5037524;28;20026;-80
2021/09/05 01:05:18;;;;;;;7.93;5.72;;;409.60;2355.20;;;;;;5035443;28;20017;-81
2021/09/05 01:07:44;;;;;;;9.68;6.07;;;409.60;2355.20;;;;;;5036909;28;20036;-80
2021/09/05 01:10:12;;;;;;;10.00;5.60;;;409.60;2355.20;;;;;;5037334;28;20009;-79
2021/09/05 01:12:39;;;;;;;11.80;6.18;;;409.80;2355.20;;;;;;5036742;28;20029;-80
2021/09/05 01:15:06;;;;;;;9.48;6.15;;;409.60;2355.20;;;;;;5037820;28;20034;-80
2021/09/05 01:17:36;;;;;;;8.90;5.70;;;384.90;2329.60;;;;;;5034609;28;20026;-82
2021/09/05 01:20:08;;;;;;;11.50;7.53;;;409.60;2355.20;;;;;;5019336;28;20032;-81
2021/09/05 01:22:35;;;;;;;7.32;5.00;;;409.70;2355.20;;;;;;5013980;28;20040;-81
2021/09/05 01:25:01;;;;;;;7.95;5.88;;;409.70;2355.20;;;;;;5014946;28;20029;-81
2021/09/05 01:27:27;;;;;;;9.85;6.20;;;409.70;2355.20;;;;;;5014922;28;20026;-83
2021/09/05 01:29:53;;;;;;;8.95;5.28;;;409.70;2355.20;;;;;;5012937;28;20141;-81
2021/09/05 01:32:19;;;;;;;9.07;5.53;;;409.90;2355.20;;;;;;5016788;28;20417;-83
2021/09/05 01:34:45;;;;;;;8.55;4.90;;;409.80;2355.20;;;;;;5018645;28;20034;-81
2021/09/05 01:37:11;;;;;;;6.85;4.88;;;409.70;2355.20;;;;;;5018555;28;20026;-81
2021/09/05 01:39:37;;;;;;;17.45;10.30;;;409.70;2355.20;;;;;;5018914;28;20026;-81
2021/09/05 01:42:03;;;;;;;14.93;9.80;;;409.70;2355.20;;;;;;5018638;28;20026;-81
2021/09/05 01:44:29;;;;;;;9.88;6.05;;;409.70;2355.20;;;;;;5016591;28;20052;-83
2021/09/05 01:46:55;;;;;;;11.93;4.72;;;409.90;2355.20;;;;;;5016454;28;20517;-82
2021/09/05 01:49:21;;;;;;;8.25;5.15;;;410.00;2355.20;;;;;;5016623;28;20025;-81
2021/09/05 01:51:46;;;;;;;10.18;5.20;;;410.00;2355.20;;;;;;5016550;28;20026;-83
2021/09/05 01:54:12;;;;;;;8.15;5.13;;;409.90;2355.20;;;;;;5016451;28;20045;-81
2021/09/05 01:56:38;;;;;;;7.95;5.22;;;410.00;2355.20;;;;;;5016328;28;20030;-84
2021/09/05 01:59:05;;;;;;;9.43;5.13;;;409.90;2355.20;;;;;;5017542;28;20033;-80
2021/09/05 02:01:32;;;;;;;10.48;5.75;;;409.70;2355.20;;;;;;5017499;28;20029;-81
2021/09/05 02:03:58;;;;;;;11.50;5.40;;;410.00;2355.20;;;;;;5016487;28;20026;-82
2021/09/05 02:06:26;;;;;;;12.55;6.07;;;409.70;2355.20;;;;;;5016037;28;20026;-81
2021/09/05 02:08:53;;;;;;;10.23;5.55;;;409.70;2355.20;;;;;;5016391;28;20033;-82
2021/09/05 02:11:19;;;;;;;10.68;6.05;;;409.70;2355.20;;;;;;5016139;28;20458;-81
2021/09/05 02:13:45;;;;;;;10.35;5.68;;;384.60;2329.60;;;;;;5015583;28;20125;-81
2021/09/05 02:16:11;;;;;;;14.32;6.30;;;384.70;2329.60;;;;;;5016029;28;20121;-80
2021/09/05 02:18:37;;;;;;;9.38;5.85;;;384.80;2329.60;;;;;;5015314;28;20030;-81
2021/09/05 02:21:03;;;;;;;10.50;5.68;;;384.80;2329.60;;;;;;5014513;28;20061;-80
2021/09/05 02:23:28;;;;;;;10.13;5.57;;;384.80;2329.60;;;;;;5014745;28;20146;-81
2021/09/05 02:25:54;;;;;;;10.00;6.18;;;384.80;2329.60;;;;;;5014760;28;20486;-80
2021/09/05 02:28:20;;;;;;;9.57;5.78;;;384.80;2329.60;;;;;;5014324;28;20030;-82
2021/09/05 02:30:46;;;;;;;9.48;5.93;;;384.90;2329.60;;;;;;5014754;28;20026;-81
2021/09/05 02:33:12;;;;;;;7.78;4.93;;;409.70;2355.20;;;;;;5014905;28;20037;-82
2021/09/05 02:35:38;;;;;;;8.57;6.25;;;409.60;2355.20;;;;;;5014626;28;20034;-80
2021/09/05 02:38:03;;;;;;;14.35;6.75;;;409.60;2355.20;;;;;;5016202;28;20378;-82
2021/09/05 02:40:29;;;;;;;14.68;6.60;;;384.40;2329.60;;;;;;5014518;28;20359;-82
2021/09/05 02:42:55;;;;;;;16.88;6.30;;;384.10;2329.60;;;;;;5014025;28;20101;-83
2021/09/05 02:45:21;;;;;;;9.55;6.05;;;384.30;2329.60;;;;;;5015325;28;20462;-83
2021/09/05 02:47:47;;;;;;;8.77;5.68;;;384.20;2329.60;;;;;;5014921;28;20065;-84
2021/09/05 02:50:13;;;;;;;9.45;5.88;;;384.20;2329.60;;;;;;5015294;28;20100;-83
2021/09/05 02:52:39;;;;;;;7.68;5.40;;;384.30;2329.60;;;;;;5015414;28;20113;-82
2021/09/05 02:55:06;;;;;;;9.55;5.93;;;384.20;2329.60;;;;;;5014724;28;20128;-82
2021/09/05 02:57:32;;;;;;;9.07;5.88;;;384.00;2329.60;;;;;;5015049;28;20038;-82
2021/09/05 02:59:57;;;;;;;10.18;5.60;;;384.10;2329.60;;;;;;5015249;28;20084;-79
2021/09/05 03:02:23;;;;;;;11.52;6.05;;;359.10;2329.60;;;;;;5014742;28;20524;-81
2021/09/05 03:04:51;;;;;;;9.20;5.97;;;359.20;2329.60;;;;;;5015906;28;20201;-81
2021/09/05 03:07:17;;;;;;;12.48;6.13;;;359.10;2329.60;;;;;;4998515;28;20466;-81
2021/09/05 03:09:43;;;;;;;9.85;6.25;;;358.70;2329.60;;;;;;5014406;28;20033;-80
2021/09/05 03:12:09;;;;;;;9.20;6.15;;;333.70;2329.60;;;;;;5014698;28;20053;-82
2021/09/05 03:14:35;;;;;;;13.65;6.07;;;358.50;2329.60;;;;;;5014692;28;20041;-83
2021/09/05 03:17:06;;;;;;;7.72;5.72;;;358.70;2329.60;;;;;;5014475;28;20026;-83
2021/09/05 03:19:32;;;;;;;8.05;5.95;;;358.90;2329.60;;;;;;5014685;28;20026;-84
2021/09/05 03:21:58;;;;;;;9.50;5.47;;;358.90;2329.60;;;;;;5014423;28;20092;-82
2021/09/05 03:24:27;;;;;;;8.07;5.28;;;358.90;2329.60;;;;;;5014073;28;20022;-82
2021/09/05 03:26:53;;;;;;;7.28;5.03;;;358.90;2329.60;;;;;;5014556;28;20112;-82
2021/09/05 03:29:19;;;;;;;9.32;5.35;;;359.10;2329.60;;;;;;5014057;28;20045;-82
2021/09/05 03:31:45;;;;;;;8.00;5.40;;;359.10;2329.60;;;;;;5014044;28;20033;-83
2021/09/05 03:34:14;;;;;;;7.28;5.45;;;358.80;2329.60;;;;;;5014538;28;20464;-83
2021/09/05 03:36:40;;;;;;;9.82;5.28;;;358.80;2329.60;;;;;;5013826;28;20022;-84
2021/09/05 03:39:06;;;;;;;8.75;5.50;;;358.90;2329.60;;;;;;5014023;28;20057;-82
2021/09/05 03:41:35;;;;;;;9.40;5.95;;;359.30;2329.60;;;;;;5014425;28;20124;-83
2021/09/05 03:44:01;;;;;;;10.43;5.72;;;359.00;2329.60;;;;;;5013860;28;20026;-83
2021/09/05 03:46:27;;;;;;;9.43;5.60;;;359.20;2329.60;;;;;;5013960;28;20045;-82
2021/09/05 03:48:53;;;;;;;11.00;5.18;;;359.30;2329.60;;;;;;5013960;28;20033;-81
2021/09/05 03:51:18;;;;;;;7.63;5.50;;;359.30;2329.60;;;;;;5013759;28;20444;-83
2021/09/05 03:53:45;;;;;;;11.57;5.95;;;359.20;2329.60;;;;;;5013696;28;20045;-81
2021/09/05 03:56:11;;;;;;;10.80;6.55;;;359.00;2329.60;;;;;;5014063;28;20466;-81
2021/09/05 03:58:37;;;;;;;10.82;6.32;;;359.00;2329.60;;;;;;5013760;28;20072;-83
2021/09/05 04:01:03;;;;;;;10.25;6.80;;;358.80;2329.60;;;;;;5013867;28;20056;-82
2021/09/05 04:03:29;;;;;;;11.52;6.10;;;358.70;2329.60;;;;;;5013801;28;20355;-82
2021/09/05 04:05:55;;;;;;;14.75;6.95;;;358.60;2329.60;;;;;;5013358;28;20032;-84
2021/09/05 04:08:39;;;;;;;13.50;8.88;;;333.70;2329.60;;;;;;5013613;28;20022;-83
2021/09/05 04:11:05;;;;;;;14.68;7.72;;;333.70;2329.60;;;;;;4999532;28;20040;-84
2021/09/05 04:13:34;;;;;;;17.83;7.60;;;333.50;2329.60;;;;;;5013188;28;20029;-83
2021/09/05 04:16:00;;;;;;;7.43;5.60;;;333.50;2329.60;;;;;;4997382;28;20076;-83
2021/09/05 04:18:26;;;;;;;11.60;6.18;;;333.60;2329.60;;;;;;5012981;28;20065;-84
2021/09/05 04:20:52;;;;;;;11.70;6.85;;;333.70;2329.60;;;;;;5013231;28;20413;-81
2021/09/05 04:23:19;;;;;;;11.25;6.63;;;333.70;2329.60;;;;;;5013281;28;20022;-81
2021/09/05 04:25:45;;;;;;;9.00;5.75;;;358.60;2329.60;;;;;;4996468;28;20065;-82
2021/09/05 04:28:11;;;;;;;11.52;6.38;;;358.70;2329.60;;;;;;5013241;28;20026;-82
2021/09/05 04:30:41;;;;;;;9.27;5.90;;;358.70;2329.60;;;;;;5013052;28;20095;-81
2021/09/05 04:33:07;;;;;;;13.35;5.75;;;358.80;2329.60;;;;;;5013034;28;20034;-84
2021/09/05 04:35:38;;;;;;;12.68;6.32;;;358.80;2329.60;;;;;;4996911;28;20030;-84
2021/09/05 04:38:04;;;;;;;9.63;6.25;;;358.90;2329.60;;;;;;5013194;28;20026;-83
2021/09/05 04:40:39;;;;;;;9.35;6.32;;;358.90;2329.60;;;;;;5012833;28;20084;-82
2021/09/05 04:43:05;;;;;;;8.80;5.82;;;358.40;2329.60;;;;;;5013046;28;20022;-81
2021/09/05 04:45:31;;;;;;;8.35;5.93;;;358.50;2329.60;;;;;;5013115;28;20381;-81
2021/09/05 04:47:57;;;;;;;12.57;6.28;;;358.70;2329.60;;;;;;5012867;28;20080;-81
2021/09/05 04:50:23;;;;;;;8.18;5.95;;;358.70;2329.60;;;;;;5013043;28;20037;-81
2021/09/05 04:52:49;;;;;;;10.77;6.65;;;358.50;2329.60;;;;;;5013236;28;20122;-80
2021/09/05 04:55:16;;;;;;;13.82;7.35;;;358.50;2329.60;;;;;;5012594;28;20041;-82
2021/09/05 04:57:42;;;;;;;11.60;6.65;;;358.50;2329.60;;;;;;5013240;28;20030;-82
2021/09/05 05:00:08;;;;;;;11.55;6.28;;;358.50;2329.60;;;;;;5012650;28;20026;-82
2021/09/05 05:02:38;;;;;;;9.48;6.88;;;358.60;2329.60;;;;;;5013511;28;20343;-82
2021/09/05 05:05:05;;;;;;;12.25;6.63;;;358.50;2329.60;;;;;;5012162;28;20030;-82
2021/09/05 05:07:31;;;;;;;9.98;6.03;;;358.50;2329.60;;;;;;5012287;28;20477;-82
2021/09/05 05:10:01;;;;;;;11.30;6.43;;;333.70;2329.60;;;;;;5012822;28;20029;-84
2021/09/05 05:12:27;;;;;;;9.90;5.82;;;358.50;2329.60;;;;;;5012582;28;20033;-82
2021/09/05 05:14:56;;;;;;;11.30;6.50;;;358.50;2329.60;;;;;;5012190;28;20030;-82
2021/09/05 05:17:22;;;;;;;10.45;7.00;;;358.70;2329.60;;;;;;5012540;28;20026;-84
2021/09/05 05:19:48;;;;;;;10.07;6.32;;;358.60;2329.60;;;;;;5012554;28;20044;-84
2021/09/05 05:22:14;;;;;;;10.75;6.30;;;358.80;2329.60;;;;;;5014070;28;20545;-83
2021/09/05 05:24:40;;;;;;;10.95;5.93;;;358.90;2329.60;;;;;;5014146;28;20026;-83
2021/09/05 05:27:06;;;;;;;14.20;7.05;;;359.10;2329.60;;;;;;5013831;28;20125;-80
2021/09/05 05:29:32;;;;;;;17.25;7.80;;;359.10;2329.60;;;;;;5012227;28;20073;-82
2021/09/05 05:31:58;;;;;;;15.23;7.93;;;359.20;2329.60;;;;;;5012639;28;20084;-84
2021/09/05 05:34:24;;;;;;;20.13;8.00;;;359.30;2329.60;;;;;;5012439;28;20497;-82
2021/09/05 05:36:50;;;;;;;15.85;7.10;;;359.30;2329.60;;;;;;5012350;28;20124;-84
2021/09/05 05:39:16;;;;;;;14.02;7.70;;;384.00;2329.60;;;;;;5013446;28;20102;-82
2021/09/05 05:41:42;;;;;;;11.40;6.95;;;384.10;2329.60;;;;;;5012471;28;20068;-80
2021/09/05 05:44:08;;;;;;;11.98;6.93;;;384.30;2329.60;;;;;;5012118;28;20117;-81
2021/09/05 05:46:34;;;;;;;11.32;6.25;;;384.40;2329.60;;;;;;5012633;28;20057;-82
2021/09/05 05:49:00;;;;;;;15.10;7.78;;;384.70;2329.60;;;;;;5012373;28;20459;-83
2021/09/05 05:51:29;;;;;;;14.13;7.85;;;384.20;2329.60;;;;;;5012178;28;20084;-83
2021/09/05 05:53:55;;;;;;;11.32;6.40;;;384.30;2329.60;;;;;;5013074;28;20030;-84
2021/09/05 05:56:21;;;;;;;12.00;6.50;;;384.30;2329.60;;;;;;5012271;28;20025;-79
2021/09/05 05:58:49;;;;;;;17.38;7.05;;;384.20;2329.60;;;;;;5012105;28;20045;-83
2021/09/05 06:01:15;;;;;;;10.43;6.07;;;384.40;2329.60;;;;;;5012275;28;20029;-84
2021/09/05 06:03:41;;;;;;;9.98;6.32;;;384.30;2329.60;;;;;;5011936;28;20141;-83
2021/09/05 06:06:07;;;;;;;10.60;6.78;;;384.40;2329.60;;;;;;5012217;28;20026;-84
2021/09/05 06:08:33;;;;;;;13.70;7.68;;;384.40;2329.60;;;;;;5012257;28;20026;-83
2021/09/05 06:10:59;;;;;;;14.63;8.77;;;384.30;2329.60;;;;;;5013722;28;20113;-83
2021/09/05 06:13:25;;;;;;;14.77;8.77;;;384.50;2329.60;;;;;;5011923;28;20030;-80
2021/09/05 06:15:51;;;;;;;12.70;6.97;;;384.60;2329.60;;;;;;5011791;28;20482;-81
2021/09/05 06:18:17;;;;;;;11.00;6.20;;;384.70;2329.60;;;;;;5014779;28;20072;-82
2021/09/05 06:20:43;;;;;;;9.32;6.22;;;384.70;2329.60;;;;;;5015233;28;20029;-81
2021/09/05 06:23:09;;;;;;;9.00;6.10;;;384.60;2329.60;;;;;;5018026;28;20057;-82
2021/09/05 06:25:35;;;;;;;9.13;6.20;;;384.70;2329.60;;;;;;5014735;28;20030;-82
2021/09/05 06:28:00;;;;;;;12.45;6.05;;;384.90;2329.60;;;;;;5015045;28;20076;-81
2021/09/05 06:30:26;;;;;;;10.77;6.43;;;409.70;2355.20;;;;;;5014713;28;20142;-81
2021/09/05 06:32:52;;;;;;;9.52;5.88;;;409.70;2355.20;;;;;;5014699;28;20030;-81
2021/09/05 06:35:18;;;;;;;13.35;6.72;;;409.90;2355.20;;;;;;5014868;28;20050;-82
2021/09/05 06:37:44;;;;;;;8.77;5.30;;;410.20;2355.20;;;;;;5014946;28;20458;-83
2021/09/05 06:40:10;;;;;;;9.23;5.20;;;410.20;2355.20;;;;;;5014805;28;20549;-82
2021/09/05 06:42:36;;;;;;;9.43;6.03;;;435.40;2355.20;;;;;;5014960;28;20034;-83
2021/09/05 06:45:02;;;;;;;8.88;6.00;;;410.50;2355.20;;;;;;5014816;28;20444;-82
2021/09/05 06:47:28;;;;;;;9.73;6.47;;;410.40;2355.20;;;;;;5015492;28;20424;-82
2021/09/05 06:49:54;;;;;;;16.42;6.43;;;410.50;2355.20;;;;;;5015287;28;20112;-82
2021/09/05 06:52:19;;;;;;;9.60;6.05;;;435.30;2355.20;;;;;;5015238;28;20393;-83
2021/09/05 06:54:45;;;;;;;13.00;6.18;;;435.50;2355.20;;;;;;5014906;28;20037;-81
2021/09/05 06:57:11;;;;;;;11.98;6.57;;;435.60;2355.20;;;;;;5015196;28;20062;-81
2021/09/05 06:59:36;;;;;;;10.52;6.28;;;435.70;2355.20;;;;;;5014926;28;20029;-81
2021/09/05 07:02:02;;;;;;;9.65;5.80;;;435.70;2355.20;;;;;;5016094;28;20428;-81
2021/09/05 07:04:28;;;;;;;8.52;6.18;;;435.90;2355.20;;;;;;5014915;28;20030;-81
2021/09/05 07:06:54;;;;;;;9.82;5.95;;;436.10;2355.20;;;;;;5014719;28;20124;-81
2021/09/05 07:09:20;;;;;;;13.15;7.15;;;460.80;2380.80;;;;;;5014889;28;20076;-80
2021/09/05 07:11:45;;;;;;;7.72;6.15;;;460.90;2380.80;;;;;;5015030;28;20040;-82
2021/09/05 07:14:11;;;;;;;9.75;5.95;;;461.10;2380.80;;;;;;5015610;28;20505;-81
2021/09/05 07:16:37;;;;;;;9.30;5.30;;;461.10;2380.80;;;;;;5015183;28;20109;-81
2021/09/05 07:19:03;;;;;;;9.48;5.13;;;461.30;2380.80;;;;;;5014742;28;20030;-81
2021/09/05 07:21:29;;;;;;;10.95;6.20;;;461.40;2380.80;;;;;;5014960;28;20033;-81
2021/09/05 07:23:54;;;;;;;9.20;6.07;;;461.60;2380.80;;;;;;5017582;28;20058;-81
2021/09/05 07:26:20;;;;;;;11.20;7.55;;;486.40;2380.80;;;;;;5015832;28;20022;-79
2021/09/05 07:28:46;;;;;;;10.60;6.40;;;486.50;2380.80;;;;;;5014248;28;20073;-80
2021/09/05 07:31:12;;;;;;;10.35;5.47;;;486.40;2380.80;;;;;;5014953;28;20033;-81
2021/09/05 07:33:37;;;;;;;9.75;6.05;;;486.40;2380.80;;;;;;5015176;28;20470;-81
2021/09/05 07:36:03;;;;;;;9.38;7.18;;;486.50;2380.80;;;;;;5014378;28;20044;-80
2021/09/05 07:38:29;;;;;;;10.40;6.82;;;486.50;2380.80;;;;;;5015518;28;20033;-80
2021/09/05 07:40:55;;;;;;;12.13;7.53;;;486.50;2380.80;;;;;;5015209;28;20470;-80
2021/09/05 07:43:21;;;;;;;10.75;6.55;;;486.50;2380.80;;;;;;5014258;28;20458;-80
2021/09/05 07:45:47;;;;;;;9.20;6.18;;;486.50;2380.80;;;;;;5014138;28;20041;-80
2021/09/05 07:48:13;;;;;;;12.60;7.43;;;486.60;2380.80;;;;;;5014500;28;20462;-80
2021/09/05 07:50:38;;;;;;;11.52;8.05;;;486.70;2380.80;;;;;;5013952;28;20026;-80
2021/09/05 07:53:04;;;;;;;7.30;5.20;;;486.90;2380.80;;;;;;5014035;28;20085;-80
2021/09/05 07:55:30;;;;;;;13.57;6.50;;;487.00;2380.80;;;;;;5013345;28;20029;-80
2021/09/05 07:57:56;;;;;;;11.02;6.68;;;487.10;2380.80;;;;;;5014055;28;20040;-80
2021/09/05 08:00:22;;;;;;;12.15;7.30;;;487.10;2380.80;;;;;;5014265;28;20068;-80
2021/09/05 08:02:47;;;;;;;9.40;6.22;;;512.10;2380.80;;;;;;5014300;28;20030;-80
2021/09/05 08:05:13;;;;;;;11.82;7.00;;;512.30;2380.80;;;;;;5015311;28;20398;-81
2021/09/05 08:07:39;;;;;;;10.63;6.00;;;512.30;2380.80;;;;;;5013922;28;20026;-80
2021/09/05 08:10:06;;;;;;;10.90;6.88;;;512.30;2380.80;;;;;;5013660;28;20030;-79
2021/09/05 08:12:32;;;;;;;10.45;6.72;;;512.60;2380.80;;;;;;5013854;28;20502;-80
2021/09/05 08:14:57;;;;;;;9.60;6.10;;;512.60;2380.80;;;;;;5013563;28;20057;-79
2021/09/05 08:17:23;;;;;;;8.77;5.13;;;512.60;2380.80;;;;;;5014249;28;20473;-79
2021/09/05 08:19:50;;;;;;;11.70;6.30;;;512.90;2380.80;;;;;;5014260;28;20026;-79
2021/09/05 08:22:17;;;;;;;11.02;6.45;;;512.90;2380.80;;;;;;5014764;28;20022;-79
2021/09/05 08:24:43;;;;;;;8.65;6.50;;;512.90;2380.80;;;;;;5013167;28;20088;-79
2021/09/05 08:27:09;;;;;;;11.57;6.75;;;537.80;2406.40;;;;;;5013471;28;20113;-78
2021/09/05 08:29:35;;;;;;;12.35;5.93;;;538.00;2380.80;;;;;;5013088;28;20080;-79
2021/09/05 08:32:01;;;;;;;11.35;6.15;;;538.10;2355.20;;;;;;5014002;28;20050;-79
2021/09/05 08:34:27;;;;;;;9.75;6.85;;;538.20;2329.60;;;;;;5014124;28;20493;-78
2021/09/05 08:36:53;;;;;;;10.10;6.43;;;538.40;2329.60;;;;;;5013235;28;20064;-80
2021/09/05 08:39:19;;;;;;;12.27;6.10;;;538.50;2304.00;;;;;;5014323;28;20057;-79
2021/09/05 08:41:45;;;;;;;8.77;6.18;;;538.50;2329.60;;;;;;5012548;28;20022;-79
2021/09/05 08:44:11;;;;;;;10.10;7.72;;;538.50;2304.00;;;;;;5013026;28;20034;-79
2021/09/05 08:46:38;;;;;;;13.32;7.07;;;563.20;2329.60;;;;;;5013761;28;20075;-78
2021/09/05 08:49:04;;;;;;;10.80;6.80;;;563.50;2304.00;;;;;;5013343;28;20080;-79
2021/09/05 08:51:31;;;;;;;12.05;6.18;;;563.60;2278.40;;;;;;5012927;28;20481;-80
2021/09/05 08:53:58;;;;;;;8.75;5.85;;;563.80;2304.00;;;;;;5012806;28;20504;-80
2021/09/05 08:56:24;;;;;;;8.63;5.80;;;563.90;2278.40;;;;;;5012601;28;20030;-78
2021/09/05 08:58:50;;;;;;;9.70;6.47;;;563.90;2278.40;;;;;;5012982;28;20036;-77
2021/09/05 09:01:26;;;;;;;20.88;7.40;;;564.00;2278.40;;;;;;5013997;28;20021;-78
2021/09/05 09:04:06;;;;;;;15.85;6.90;;;564.10;2278.40;;;;;;5013591;28;20584;-78
2021/09/05 09:06:37;;;;;;;25.08;9.38;;;564.10;2252.80;;;;;;5012949;28;20026;-79
2021/09/05 09:09:05;;;;;;;22.60;7.30;;;588.80;2252.80;;;;;;5013351;28;20061;-78
2021/09/05 09:11:51;;;;;;;16.77;6.55;;;588.90;2252.80;;;;;;5012362;28;20076;-77
2021/09/05 09:14:19;;;;;;;8.07;5.70;;;589.10;2252.80;;;;;;5011994;28;20477;-78
2021/09/05 09:16:45;;;;;;;17.63;9.85;;;589.10;2252.80;;;;;;5011890;28;20026;-78
2021/09/05 09:19:28;;;;;;;9.43;4.97;;;589.20;2201.60;;;;;;5009554;28;20026;-77
2021/09/05 09:21:55;;;;;;;;;;;589.30;2176.00;;;;;;5010552;28;20026;-78
2021/09/05 09:24:22;;;;;;;16.23;6.68;;;589.40;2176.00;;;;;;5013186;28;20345;-78
2021/09/05 09:27:06;;;;;;;8.43;4.40;;;589.50;2176.00;;;;;;5012172;28;20025;-80
2021/09/05 09:29:33;;;;;;;8.48;4.47;;;589.70;2176.00;;;;;;5012264;28;20524;-79
2021/09/05 09:32:05;;;;;;;10.07;5.75;;;589.70;2124.80;;;;;;5011954;28;20022;-80
2021/09/05 09:34:42;;;;;;;10.75;6.68;;;614.40;2124.80;;;;;;5013450;28;20026;-80
2021/09/05 09:37:13;;;;;;;10.55;5.40;;;614.60;2124.80;;;;;;5012320;28;20120;-79
2021/09/05 09:39:51;;;;;;;7.77;4.63;;;614.60;2099.20;;;;;;5012590;28;20037;-78
2021/09/05 09:42:38;;;;;;;10.95;4.93;;;614.50;2073.60;;;;;;5012787;28;20378;-77
2021/09/05 09:45:09;;;;;;;6.50;4.80;;;614.60;2099.20;;;;;;5012459;28;20557;-78
2021/09/05 09:47:48;;;;;;;6.33;5.03;;;614.80;2073.60;;;;;;5011747;28;20030;-76
2021/09/05 09:50:16;;;;;;;11.52;5.03;;;614.70;2073.60;;;;;;5012438;28;20263;-79
2021/09/05 09:52:45;;;;;;;8.10;6.45;;;614.90;2022.40;;;;;;5015637;28;20033;-77
2021/09/05 09:55:12;;;;;;;14.23;7.57;;;615.00;2022.40;;;;;;5016264;28;20029;-78
2021/09/05 09:57:38;;;;;;;14.65;9.32;;;615.20;1996.80;;;;;;5016402;28;20027;-77
2021/09/05 10:00:05;;;;;;;10.40;5.55;;;615.30;1996.80;;;;;;5015621;28;20080;-79
2021/09/05 10:02:37;;;;;;;20.40;14.13;;;640.10;1971.20;;;;;;5017242;28;20018;-78
2021/09/05 10:05:03;;;;;;;11.43;7.33;;;640.30;1971.20;;;;;;5016895;28;20026;-78
2021/09/05 10:07:30;;;;;;;15.60;11.57;;;640.40;1920.00;;;;;;5017391;28;20101;-80
2021/09/05 10:09:59;;;;;;;10.20;5.82;;;640.50;1920.00;;;;;;5015628;28;20029;-78
2021/09/05 10:12:25;;;;;;;11.48;7.55;;;640.70;1894.40;;;;;;5017129;28;20108;-79
2021/09/05 10:14:53;;;;;;;10.70;5.22;;;640.90;1894.40;;;;;;5016593;28;20037;-77
2021/09/05 10:17:22;;;;;;;12.85;8.02;;;665.60;1868.80;;;;;;5015785;28;20058;-78
2021/09/05 10:19:52;;;;;;;7.68;6.38;;;665.90;1843.20;;;;;;5016666;28;20026;-79
2021/09/05 10:22:20;;;;;;;6.70;4.88;;;666.20;1843.20;;;;;;5015741;28;20068;-77
2021/09/05 10:24:53;;;;;;;7.43;5.45;;;666.30;1817.60;;;;;;5015618;28;20030;-79
2021/09/05 10:27:31;;;;;;;11.10;5.07;;;691.20;1792.00;;;;;;5015378;28;20022;-76
2021/09/05 10:30:14;;;;;;;9.15;4.93;;;691.30;1817.60;;;;;;5016782;28;20056;-78
2021/09/05 10:32:53;;;;;;;6.30;4.85;;;691.70;1766.40;;;;;;5015774;28;20048;-78
2021/09/05 10:35:25;;;;;;;8.13;4.43;;;691.90;1715.20;;;;;;5015378;28;20133;-80
2021/09/05 10:38:11;;;;;;;7.38;5.00;;;692.10;1715.20;;;;;;5015686;28;20076;-76
2021/09/05 10:40:49;;;;;;;7.78;5.65;;;716.90;1740.80;;;;;;5006252;28;20073;-75
2021/09/05 10:43:16;;;;;;;8.82;4.47;;;;;;;;;;5016438;28;20060;-77
2021/09/05 10:45:52;;;;;;;6.00;4.15;;;717.50;1664.00;;;;;;5015533;28;20057;-78
2021/09/05 10:48:37;;;;;;;5.88;4.40;;;717.60;1689.60;;;;;;5015307;28;20022;-77
2021/09/05 10:51:07;;;;;;;7.63;4.90;;;717.70;1664.00;;;;;;5015382;28;20381;-77
2021/09/05 10:53:47;;;;;;;9.48;4.57;;;742.40;1664.00;;;;;;5016559;28;20065;-76
2021/09/05 10:56:26;;;;;;;8.73;6.32;;;742.50;1664.00;;;;;;5016108;28;20030;-77
2021/09/05 10:59:06;;;;;;;7.15;5.10;;;742.80;1638.40;;;;;;5015092;28;20072;-75
2021/09/05 11:01:38;;;;;;;6.60;4.85;;;743.00;1612.80;;;;;;5014993;28;20029;-76
2021/09/05 11:04:14;;;;;;;9.65;4.70;;;743.10;1587.20;;;;;;5014031;28;20061;-76
2021/09/05 11:06:56;;;;;;;8.77;5.50;;;742.90;1587.20;;;;;;5016271;28;20454;-77
2021/09/05 11:12:08;;;;;;;6.47;4.95;;;768.00;1561.60;;;;;;5015927;28;20032;-78
2021/09/05 11:14:37;;;;;;;8.57;4.53;;;768.30;1510.40;;;;;;5014913;28;20034;-78
2021/09/05 11:17:33;;;;;;;6.53;4.30;;;768.40;1536.00;;;;;;5014297;28;20022;-78
2021/09/05 11:20:03;;;;;;;8.73;4.55;;;768.60;1510.40;;;;;;5013036;28;20045;-76
2021/09/05 11:22:29;;;;;;;9.93;6.28;;;768.80;1484.80;;;;;;5014620;28;20466;-78
2021/09/05 11:25:16;;;;;;;8.65;7.13;;;768.90;1459.20;;;;;;5015498;28;20026;-78
2021/09/05 11:28:11;;;;;;;15.57;11.70;;;768.80;1459.20;;;;;;5014149;28;20045;-77
2021/09/05 11:30:39;;;;;;;14.63;7.05;;;793.70;1484.80;;;;;;5013962;28;20486;-77
2021/09/05 11:33:11;;;;;;;9.90;6.13;;;794.00;1459.20;;;;;;5014219;28;20141;-75
2021/09/05 11:35:37;;;;;;;6.60;3.83;;;794.20;1408.00;;;;;;5014524;28;20077;-77
2021/09/05 11:38:04;;;;;;;6.18;3.83;;;794.00;1382.40;;;;;;5015558;28;20370;-76
2021/09/05 11:40:30;;;;;;;7.95;4.93;;;794.40;1408.00;;;;;;5014451;28;20061;-77
2021/09/05 11:42:56;;;;;;;5.18;3.83;;;794.50;1382.40;;;;;;5013864;28;20086;-77
2021/09/05 11:45:25;;;;;;;8.75;5.72;;;794.20;1356.80;;;;;;5015781;28;20113;-77
2021/09/05 11:48:03;;;;;;;5.82;4.47;;;819.20;1408.00;;;;;;5014079;28;20026;-77
2021/09/05 11:50:29;;;;;;;5.65;3.58;;;819.30;1382.40;;;;;;5013760;28;20445;-78
2021/09/05 11:52:55;;;;;;;5.68;3.40;;;819.30;1331.20;;;;;;5014028;28;20022;-77
2021/09/05 11:55:22;;;;;;;7.53;4.10;;;794.50;1280.00;;;;;;5013825;28;20124;-78
2021/09/05 11:57:55;;;;;;;8.15;5.00;;;819.50;1305.60;;;;;;5013656;28;20030;-77
2021/09/05 12:00:52;;;;;;;6.90;3.70;;;819.70;1331.20;;;;;;5014012;28;20056;-78
2021/09/05 12:03:26;;;;;;;6.65;3.65;;;819.80;1254.40;;;;;;5014009;28;20032;-77
2021/09/05 12:05:56;;;;;;;8.70;4.75;;;819.50;1280.00;;;;;;5015435;28;20053;-78
2021/09/05 12:08:23;;;;;;;7.28;4.50;;;819.70;1305.60;;;;;;5013754;28;20473;-78
2021/09/05 12:11:06;;;;;;;6.18;4.40;;;819.70;1280.00;;;;;;5013648;28;20037;-78
2021/09/05 12:13:55;;;;;;;6.43;4.30;;;820.00;1305.60;;;;;;5015002;28;20032;-78
2021/09/05 12:16:30;;;;;;;5.50;4.28;;;844.90;1305.60;;;;;;5013945;28;20144;-77
2021/09/05 12:19:06;;;;;;;6.13;3.60;;;845.00;1280.00;;;;;;5014950;28;20026;-77
2021/09/05 12:21:37;;;;;;;5.50;3.30;;;845.00;1305.60;;;;;;5013769;28;20469;-77